createdAt,value
2019-03-22T00:01:11.889Z,77.67
2019-03-22T00:03:41.848Z,77.58
2019-03-22T00:06:11.886Z,77.61
2019-03-22T00:08:41.940Z,77.84
2019-03-22T00:11:11.907Z,77.83
2019-03-22T00:13:41.856Z,77.67
2019-03-22T00:16:11.889Z,78.24
2019-03-22T00:18:41.951Z,78.41
2019-03-22T00:21:11.870Z,77.10
2019-03-22T00:23:41.795Z,77.59
2019-03-22T00:26:12.055Z,77.73
2019-03-22T00:28:42.107Z,78.13
2019-03-22T00:31:12.113Z,78.13
2019-03-22T00:33:42.224Z,77.25
2019-03-22T00:36:12.264Z,76.52
2019-03-22T00:38:42.169Z,76.32
2019-03-22T00:41:12.399Z,75.44
2019-03-22T00:43:42.520Z,74.92
2019-03-22T00:46:12.442Z,73.20
2019-03-22T00:48:42.397Z,73.03
2019-03-22T00:51:12.418Z,73.15
2019-03-22T00:53:42.616Z,73.20
2019-03-22T00:56:12.572Z,73.71
2019-03-22T00:58:42.483Z,73.42
2019-03-22T01:01:12.509Z,73.26
2019-03-22T01:03:42.629Z,72.76
2019-03-22T01:06:12.511Z,72.45
2019-03-22T01:08:42.420Z,71.54
2019-03-22T01:11:12.482Z,71.81
2019-03-22T01:13:42.518Z,71.79
2019-03-22T01:16:12.442Z,72.02
2019-03-22T01:18:42.501Z,72.20
2019-03-22T01:21:12.409Z,71.97
2019-03-22T01:23:42.323Z,72.61
2019-03-22T01:26:12.541Z,73.48
2019-03-22T01:28:42.626Z,73.72
2019-03-22T01:31:12.657Z,73.72
2019-03-22T01:33:42.635Z,72.95
2019-03-22T01:36:12.651Z,73.19
2019-03-22T01:38:42.681Z,73.08
2019-03-22T01:41:12.868Z,72.49
2019-03-22T01:43:42.785Z,71.89
2019-03-22T01:46:12.802Z,71.35
2019-03-22T01:48:42.826Z,71.55
2019-03-22T01:51:12.745Z,71.76
2019-03-22T01:53:42.715Z,72.17
2019-03-22T01:56:12.743Z,72.12
2019-03-22T01:58:42.657Z,72.75
2019-03-22T02:01:12.732Z,73.26
2019-03-22T02:03:42.760Z,73.54
2019-03-22T02:06:12.668Z,73.07
2019-03-22T02:08:42.623Z,73.05
2019-03-22T02:11:12.648Z,72.55
2019-03-22T02:13:42.677Z,72.61
2019-03-22T02:16:12.627Z,72.14
2019-03-22T02:18:42.559Z,72.18
2019-03-22T02:21:12.586Z,72.44
2019-03-22T02:23:42.618Z,73.48
2019-03-22T02:26:12.534Z,73.93
2019-03-22T02:28:42.496Z,74.14
2019-03-22T02:31:12.545Z,74.32
2019-03-22T02:33:42.580Z,74.90
2019-03-22T02:36:12.590Z,75.31
2019-03-22T02:38:42.634Z,75.87
2019-03-22T02:41:12.541Z,75.98
2019-03-22T02:43:42.660Z,76.38
2019-03-22T02:46:12.689Z,76.11
2019-03-22T02:48:42.729Z,76.87
2019-03-22T02:51:12.691Z,77.12
2019-03-22T02:53:42.620Z,76.37
2019-03-22T02:56:12.757Z,75.81
2019-03-22T02:58:42.880Z,75.37
2019-03-22T03:01:12.786Z,73.52
2019-03-22T03:03:42.700Z,72.89
2019-03-22T03:06:12.767Z,72.56
2019-03-22T03:08:42.894Z,72.49
2019-03-22T03:11:12.817Z,72.27
2019-03-22T03:13:42.779Z,71.86
2019-03-22T03:16:12.792Z,71.67
2019-03-22T03:18:42.709Z,71.87
2019-03-22T03:21:12.829Z,72.41
2019-03-22T03:23:42.849Z,72.70
2019-03-22T03:26:12.764Z,72.73
2019-03-22T03:28:42.745Z,73.02
2019-03-22T03:31:12.773Z,73.36
2019-03-22T03:33:42.804Z,73.42
2019-03-22T03:36:12.937Z,73.52
2019-03-22T03:38:42.864Z,73.72
2019-03-22T03:41:12.898Z,73.96
2019-03-22T03:43:43.427Z,74.35
2019-03-22T03:46:13.349Z,75.01
2019-03-22T03:48:43.282Z,75.63
2019-03-22T03:51:13.387Z,76.44
2019-03-22T03:53:43.381Z,77.20
2019-03-22T03:56:13.310Z,76.90
2019-03-22T03:58:52.409Z,76.52
2019-03-22T04:01:15.034Z,77.16
2019-03-22T04:03:45.072Z,77.55
2019-03-22T04:06:15.032Z,77.26
2019-03-22T04:08:44.958Z,76.83
2019-03-22T04:11:14.986Z,76.07
2019-03-22T04:13:45.069Z,76.02
2019-03-22T04:16:14.996Z,76.07
2019-03-22T04:18:44.931Z,75.47
2019-03-22T04:21:15.183Z,75.30
2019-03-22T04:23:45.214Z,75.71
2019-03-22T04:26:15.141Z,75.21
2019-03-22T04:28:45.268Z,75.17
2019-03-22T04:31:15.308Z,74.31
2019-03-22T04:33:45.413Z,73.86
2019-03-22T04:36:15.428Z,73.94
2019-03-22T04:38:45.451Z,73.44
2019-03-22T04:41:15.365Z,73.49
2019-03-22T04:43:45.332Z,73.61
2019-03-22T04:46:16.226Z,73.29
2019-03-22T04:48:47.670Z,73.47
2019-03-22T04:51:18.857Z,73.17
2019-03-22T04:53:56.605Z,72.91
2019-03-22T04:56:27.180Z,72.56
2019-03-22T04:58:58.512Z,72.63
2019-03-22T05:01:29.638Z,72.59
2019-03-22T05:04:00.621Z,71.90
2019-03-22T05:06:33.461Z,70.48
2019-03-22T05:09:04.952Z,69.54
2019-03-22T05:11:35.376Z,69.12
2019-03-22T05:14:06.935Z,69.55
2019-03-22T05:16:39.959Z,70.57
2019-03-22T05:19:11.970Z,71.02
2019-03-22T05:21:42.806Z,72.11
2019-03-22T05:24:14.923Z,72.39
2019-03-22T05:26:46.762Z,72.95
2019-03-22T05:29:29.934Z,73.04
2019-03-22T05:32:13.839Z,72.90
2019-03-22T05:34:44.906Z,72.32
2019-03-22T05:37:14.826Z,71.39
2019-03-22T05:39:45.359Z,70.78
2019-03-22T05:42:15.380Z,70.38
2019-03-22T05:44:45.414Z,70.06
2019-03-22T05:47:15.385Z,70.24
2019-03-22T05:49:45.311Z,70.53
2019-03-22T05:52:15.355Z,70.88
2019-03-22T05:54:45.448Z,70.99
2019-03-22T05:57:15.377Z,72.25
2019-03-22T05:59:45.470Z,72.06
2019-03-22T06:02:15.527Z,72.60
2019-03-22T06:04:45.460Z,74.95
2019-03-22T06:07:15.491Z,75.20
2019-03-22T06:09:45.579Z,75.87
2019-03-22T06:12:15.516Z,75.67
2019-03-22T06:14:45.450Z,74.58
2019-03-22T06:17:15.539Z,73.53
2019-03-22T06:19:45.590Z,71.95
2019-03-22T06:22:15.521Z,71.94
2019-03-22T06:24:45.492Z,70.84
2019-03-22T06:27:15.534Z,70.60
2019-03-22T06:29:54.039Z,70.05
2019-03-22T06:32:17.299Z,70.10
2019-03-22T06:34:47.225Z,70.76
2019-03-22T06:37:17.310Z,71.13
2019-03-22T06:39:47.436Z,71.36
2019-03-22T06:42:17.487Z,70.35
2019-03-22T06:44:47.541Z,69.78
2019-03-22T06:47:19.092Z,69.28
2019-03-22T06:49:49.011Z,68.62
2019-03-22T06:52:19.093Z,68.72
2019-03-22T06:54:49.150Z,68.31
2019-03-22T06:57:19.078Z,68.28
2019-03-22T06:59:49.036Z,67.91
2019-03-22T07:02:19.279Z,66.65
2019-03-22T07:04:49.310Z,65.40
2019-03-22T07:07:19.236Z,64.77
2019-03-22T07:09:49.263Z,64.16
2019-03-22T07:12:19.299Z,64.30
2019-03-22T07:14:49.342Z,63.96
2019-03-22T07:17:19.313Z,64.83
2019-03-22T07:19:49.459Z,64.51
2019-03-22T07:22:19.373Z,64.83
2019-03-22T07:24:49.457Z,66.54
2019-03-22T07:27:19.505Z,64.97
2019-03-22T07:29:49.595Z,63.34
2019-03-22T07:32:19.719Z,63.59
2019-03-22T07:34:49.681Z,62.80
2019-03-22T07:37:19.730Z,62.02
2019-03-22T07:39:50.083Z,61.99
2019-03-22T07:42:20.005Z,61.18
2019-03-22T07:44:49.954Z,61.86
2019-03-22T07:47:20.037Z,61.54
2019-03-22T07:49:50.158Z,62.05
2019-03-22T07:52:20.077Z,61.95
2019-03-22T07:54:50.052Z,61.53
2019-03-22T07:57:20.116Z,61.23
2019-03-22T07:59:50.030Z,60.56
2019-03-22T08:02:20.101Z,60.57
2019-03-22T08:04:51.228Z,61.10
2019-03-22T08:07:21.214Z,60.89
2019-03-22T08:09:51.495Z,60.71
2019-03-22T08:12:21.622Z,60.09
2019-03-22T08:14:51.646Z,59.55
2019-03-22T08:17:22.075Z,59.68
2019-03-22T08:19:52.003Z,60.25
2019-03-22T08:22:22.067Z,58.93
2019-03-22T08:24:52.247Z,59.79
2019-03-22T08:27:22.281Z,59.29
2019-03-22T08:29:52.169Z,59.09
2019-03-22T08:32:22.285Z,58.74
2019-03-22T08:34:52.358Z,58.72
2019-03-22T08:37:22.482Z,57.98
2019-03-22T08:39:52.559Z,57.82
2019-03-22T08:42:22.498Z,57.41
2019-03-22T08:44:52.459Z,57.32
2019-03-22T08:47:33.262Z,56.15
2019-03-22T08:49:54.432Z,57.04
2019-03-22T08:52:24.363Z,56.63
2019-03-22T08:54:54.533Z,56.18
2019-03-22T08:57:25.120Z,56.05
2019-03-22T08:59:55.465Z,55.98
2019-03-22T09:02:25.469Z,54.90
2019-03-22T09:04:55.482Z,54.14
2019-03-22T09:07:25.637Z,54.94
2019-03-22T09:09:55.904Z,54.10
2019-03-22T09:12:26.996Z,53.92
2019-03-22T09:14:57.149Z,53.07
2019-03-22T09:17:27.215Z,53.40
2019-03-22T09:19:57.281Z,52.62
2019-03-22T09:22:27.275Z,53.02
2019-03-22T09:24:57.519Z,52.29
2019-03-22T09:27:27.555Z,52.16
2019-03-22T09:29:57.568Z,52.70
2019-03-22T09:32:27.730Z,52.56
2019-03-22T09:34:59.822Z,51.83
2019-03-22T09:37:29.560Z,53.07
2019-03-22T09:39:59.633Z,53.43
2019-03-22T09:42:29.588Z,52.26
2019-03-22T09:44:59.509Z,51.66
2019-03-22T09:47:29.646Z,51.61
2019-03-22T09:49:59.674Z,51.34
2019-03-22T09:52:29.620Z,51.12
2019-03-22T09:55:12.480Z,51.52
2019-03-22T09:57:31.356Z,50.62
2019-03-22T10:00:01.339Z,51.48
2019-03-22T10:02:31.396Z,51.29
2019-03-22T10:05:01.502Z,50.84
2019-03-22T10:07:31.621Z,50.55
2019-03-22T10:10:01.907Z,50.18
2019-03-22T10:12:32.755Z,50.28
2019-03-22T10:15:06.192Z,49.57
2019-03-22T10:17:36.174Z,48.43
2019-03-22T10:20:06.527Z,47.97
2019-03-22T10:22:36.616Z,48.89
2019-03-22T10:25:07.436Z,48.86
2019-03-22T10:27:37.403Z,48.02
2019-03-22T10:30:07.872Z,48.28
2019-03-22T10:32:38.244Z,49.05
2019-03-22T10:35:08.558Z,49.72
2019-03-22T10:37:38.772Z,50.29
2019-03-22T10:40:09.063Z,48.92
2019-03-22T10:42:38.972Z,49.26
2019-03-22T10:45:09.270Z,48.24
2019-03-22T10:47:39.358Z,47.58
2019-03-22T10:50:09.564Z,47.43
2019-03-22T10:52:39.487Z,47.45
2019-03-22T10:55:28.546Z,46.88
2019-03-22T10:57:41.550Z,47.08
2019-03-22T11:00:14.395Z,48.28
2019-03-22T11:02:44.348Z,47.78
2019-03-22T11:05:14.614Z,47.63
2019-03-22T11:07:44.721Z,47.44
2019-03-22T11:10:14.993Z,47.05
2019-03-22T11:12:44.947Z,47.03
2019-03-22T11:15:15.069Z,47.17
2019-03-22T11:17:45.158Z,47.51
2019-03-22T11:20:15.963Z,46.96
2019-03-22T11:22:46.041Z,46.50
2019-03-22T11:25:16.089Z,46.18
2019-03-22T11:27:46.042Z,45.78
2019-03-22T11:30:17.823Z,46.01
2019-03-22T11:32:47.985Z,47.30
2019-03-22T11:35:18.137Z,46.38
2019-03-22T11:37:48.096Z,45.63
2019-03-22T11:40:18.297Z,45.70
2019-03-22T11:42:48.332Z,44.58
2019-03-22T11:45:20.601Z,44.90
2019-03-22T11:47:51.782Z,45.06
2019-03-22T11:50:21.823Z,44.64
2019-03-22T11:52:51.986Z,43.18
2019-03-22T11:55:22.097Z,44.24
2019-03-22T11:57:52.020Z,44.15
2019-03-22T12:00:23.229Z,43.84
2019-03-22T12:02:53.376Z,43.69
2019-03-22T12:05:24.548Z,43.25
2019-03-22T12:07:54.676Z,42.92
2019-03-22T12:10:24.714Z,42.08
2019-03-22T12:12:54.773Z,41.26
2019-03-22T12:15:25.421Z,40.65
2019-03-22T12:17:56.508Z,41.12
2019-03-22T12:20:26.546Z,40.63
2019-03-22T12:22:56.626Z,41.05
2019-03-22T12:25:27.039Z,40.48
2019-03-22T12:27:56.967Z,40.40
2019-03-22T12:30:27.094Z,41.47
2019-03-22T12:32:57.144Z,41.29
2019-03-22T12:35:27.283Z,41.20
2019-03-22T12:37:57.820Z,41.04
2019-03-22T12:40:27.928Z,41.54
2019-03-22T12:42:57.934Z,41.60
2019-03-22T12:45:28.629Z,40.56
2019-03-22T12:47:58.773Z,40.16
2019-03-22T12:50:28.847Z,39.23
2019-03-22T12:52:58.826Z,39.43
2019-03-22T12:55:28.761Z,39.60
2019-03-22T12:57:59.576Z,38.58
2019-03-22T13:00:29.977Z,37.04
2019-03-22T13:03:00.517Z,37.04
2019-03-22T13:05:30.447Z,37.49
2019-03-22T13:08:00.551Z,36.35
2019-03-22T13:10:31.993Z,35.69
2019-03-22T13:13:01.945Z,35.96
2019-03-22T13:15:31.898Z,36.50
2019-03-22T13:18:01.937Z,37.06
2019-03-22T13:20:31.920Z,37.78
2019-03-22T13:23:02.038Z,37.04
2019-03-22T13:25:32.030Z,36.76
2019-03-22T13:28:02.003Z,36.80
2019-03-22T13:30:38.430Z,36.67
2019-03-22T13:33:08.477Z,37.53
2019-03-22T13:35:38.526Z,38.19
2019-03-22T13:38:08.671Z,38.19
2019-03-22T13:40:38.611Z,38.24
2019-03-22T13:43:08.665Z,38.80
2019-03-22T13:45:38.800Z,39.02
2019-03-22T13:48:08.774Z,38.21
2019-03-22T13:50:38.730Z,38.43
2019-03-22T13:53:08.954Z,39.00
2019-03-22T13:55:39.015Z,39.25
2019-03-22T13:58:08.955Z,39.21
2019-03-22T14:00:39.049Z,39.14
2019-03-22T14:03:09.014Z,39.01
2019-03-22T14:05:38.973Z,39.33
2019-03-22T14:08:09.317Z,40.07
2019-03-22T14:10:39.358Z,39.55
2019-03-22T14:13:09.317Z,39.55
2019-03-22T14:15:39.443Z,40.49
2019-03-22T14:18:09.499Z,40.49
2019-03-22T14:20:39.534Z,39.26
2019-03-22T14:23:09.660Z,39.50
2019-03-22T14:25:39.589Z,39.72
2019-03-22T14:28:09.638Z,39.27
2019-03-22T14:30:39.727Z,38.65
2019-03-22T14:33:13.514Z,39.39
2019-03-22T14:35:41.330Z,39.21
2019-03-22T14:38:11.461Z,39.13
2019-03-22T14:40:41.606Z,39.96
2019-03-22T14:43:11.578Z,41.27
2019-03-22T14:45:41.592Z,41.27
2019-03-22T14:48:11.832Z,41.80
2019-03-22T14:50:41.841Z,41.60
2019-03-22T14:53:11.862Z,41.00
2019-03-22T14:55:41.805Z,41.13
2019-03-22T14:58:11.903Z,41.22
2019-03-22T15:00:42.005Z,41.09
2019-03-22T15:03:28.218Z,40.65
2019-03-22T15:05:58.465Z,41.18
2019-03-22T15:08:28.510Z,41.60
2019-03-22T15:10:58.567Z,41.79
2019-03-22T15:13:46.208Z,41.78
2019-03-22T15:16:27.251Z,42.37
2019-03-22T15:19:22.450Z,41.91
2019-03-22T15:22:09.409Z,41.91
2019-03-22T15:24:58.574Z,42.62
2019-03-22T15:27:47.531Z,42.75
2019-03-22T15:30:35.174Z,42.75
2019-03-22T15:33:34.080Z,43.22
2019-03-22T15:36:29.850Z,43.61
2019-03-22T15:39:19.190Z,43.64
2019-03-22T15:41:49.505Z,44.29
2019-03-22T15:44:19.482Z,44.34
2019-03-22T15:46:49.590Z,44.26
2019-03-22T15:49:19.694Z,45.05
2019-03-22T15:51:50.085Z,45.03
2019-03-22T15:54:20.084Z,44.72
2019-03-22T15:56:50.163Z,45.01
2019-03-22T15:59:20.218Z,45.16
2019-03-22T16:01:50.289Z,45.15
2019-03-22T16:04:20.382Z,44.99
2019-03-22T16:06:52.174Z,45.70
2019-03-22T16:09:22.866Z,46.12
2019-03-22T16:11:53.063Z,46.52
2019-03-22T16:14:23.103Z,46.76
2019-03-22T16:16:53.096Z,47.04
2019-03-22T16:19:23.050Z,47.10
2019-03-22T16:21:53.645Z,47.37
2019-03-22T16:24:23.970Z,47.26
2019-03-22T16:26:53.934Z,46.60
2019-03-22T16:29:23.894Z,47.06
2019-03-22T16:31:54.173Z,47.12
2019-03-22T16:34:24.244Z,47.21
2019-03-22T16:36:54.199Z,47.22
2019-03-22T16:39:24.210Z,46.74
2019-03-22T16:41:54.282Z,46.89
2019-03-22T16:44:24.308Z,47.04
2019-03-22T16:46:54.556Z,47.37
2019-03-22T16:49:24.610Z,48.82
2019-03-22T16:51:54.578Z,48.17
2019-03-22T16:54:24.563Z,48.42
2019-03-22T16:56:54.632Z,48.32
2019-03-22T16:59:24.747Z,48.83
2019-03-22T17:01:54.744Z,49.37
2019-03-22T17:04:25.175Z,49.28
2019-03-22T17:06:55.227Z,49.08
2019-03-22T17:09:25.333Z,49.71
2019-03-22T17:11:55.286Z,49.76
2019-03-22T17:14:25.225Z,49.89
2019-03-22T17:16:55.466Z,49.94
2019-03-22T17:19:25.533Z,50.12
2019-03-22T17:21:55.477Z,50.35
2019-03-22T17:24:25.731Z,50.69
2019-03-22T17:26:55.676Z,51.06
2019-03-22T17:29:25.618Z,51.18
2019-03-22T17:31:55.869Z,51.21
2019-03-22T17:34:25.980Z,51.35
2019-03-22T17:36:55.919Z,51.75
2019-03-22T17:39:25.925Z,52.29
2019-03-22T17:41:56.215Z,52.38
2019-03-22T17:44:26.291Z,52.41
2019-03-22T17:46:56.277Z,52.76
2019-03-22T17:49:26.219Z,53.08
2019-03-22T17:51:56.307Z,53.23
2019-03-22T17:54:26.408Z,53.00
2019-03-22T17:56:56.458Z,53.02
2019-03-22T17:59:26.414Z,53.22
2019-03-22T18:01:56.519Z,53.13
2019-03-22T18:04:26.493Z,53.35
2019-03-22T18:06:56.597Z,53.44
2019-03-22T18:09:26.732Z,53.75
2019-03-22T18:11:56.679Z,54.04
2019-03-22T18:14:27.080Z,53.84
2019-03-22T18:16:57.283Z,53.78
2019-03-22T18:19:27.343Z,53.74
2019-03-22T18:21:57.351Z,53.71
2019-03-22T18:24:27.337Z,53.61
2019-03-22T18:26:57.396Z,53.51
2019-03-22T18:29:27.447Z,53.40
2019-03-22T18:31:57.438Z,53.35
2019-03-22T18:34:34.357Z,53.56
2019-03-22T18:36:59.176Z,53.87
2019-03-22T18:39:29.999Z,54.06
2019-03-22T18:41:59.979Z,54.47
2019-03-22T18:44:30.035Z,54.68
2019-03-22T18:47:00.028Z,55.18
2019-03-22T18:49:29.990Z,55.36
2019-03-22T18:52:00.085Z,56.15
2019-03-22T18:54:30.192Z,56.94
2019-03-22T18:57:00.187Z,57.30
2019-03-22T18:59:30.160Z,57.73
2019-03-22T19:02:01.279Z,57.73
2019-03-22T19:04:32.040Z,58.44
2019-03-22T19:07:01.989Z,59.16
2019-03-22T19:09:32.025Z,59.06
2019-03-22T19:12:02.083Z,58.67
2019-03-22T19:14:32.146Z,58.72
2019-03-22T19:17:02.147Z,59.29
2019-03-22T19:19:32.095Z,59.56
2019-03-22T19:22:02.153Z,59.85
2019-03-22T19:24:32.127Z,59.62
2019-03-22T19:27:02.238Z,59.83
2019-03-22T19:29:32.314Z,60.18
2019-03-22T19:32:02.467Z,60.26
2019-03-22T19:34:32.430Z,60.69
2019-03-22T19:37:02.465Z,60.55
2019-03-22T19:39:32.563Z,60.90
2019-03-22T19:42:02.510Z,61.12
2019-03-22T19:44:32.459Z,61.21
2019-03-22T19:47:02.704Z,61.37
2019-03-22T19:49:32.752Z,61.74
2019-03-22T19:52:02.693Z,61.93
2019-03-22T19:54:32.850Z,62.13
2019-03-22T19:57:03.204Z,62.59
2019-03-22T19:59:33.267Z,63.10
2019-03-22T20:02:03.256Z,63.33
2019-03-22T20:04:34.220Z,63.49
2019-03-22T20:07:04.270Z,63.76
2019-03-22T20:09:35.115Z,63.62
2019-03-22T20:12:05.149Z,63.90
2019-03-22T20:14:36.288Z,64.25
2019-03-22T20:17:06.491Z,64.62
2019-03-22T20:19:36.575Z,64.76
2019-03-22T20:22:06.526Z,64.97
2019-03-22T20:24:36.518Z,65.06
2019-03-22T20:27:06.522Z,65.03
2019-03-22T20:29:36.574Z,65.37
2019-03-22T20:32:06.558Z,65.70
2019-03-22T20:34:36.846Z,66.01
2019-03-22T20:37:06.904Z,66.41
2019-03-22T20:39:36.999Z,66.85
2019-03-22T20:42:06.945Z,67.08
2019-03-22T20:44:37.272Z,67.15
2019-03-22T20:47:07.306Z,66.98
2019-03-22T20:49:37.254Z,66.99
2019-03-22T20:52:07.342Z,67.09
2019-03-22T20:54:37.563Z,67.10
2019-03-22T20:57:07.532Z,67.37
2019-03-22T20:59:37.502Z,67.59
2019-03-22T21:02:07.602Z,67.70
2019-03-22T21:04:37.650Z,67.84
2019-03-22T21:07:07.659Z,67.96
2019-03-22T21:09:37.696Z,68.21
2019-03-22T21:12:07.688Z,68.33
2019-03-22T21:14:37.755Z,68.30
2019-03-22T21:17:07.837Z,68.30
2019-03-22T21:19:37.820Z,68.48
2019-03-22T21:22:07.888Z,68.29
2019-03-22T21:24:37.900Z,68.04
2019-03-22T21:27:15.595Z,68.40
2019-03-22T21:29:44.082Z,69.06
2019-03-22T21:32:11.454Z,68.54
2019-03-22T21:34:43.870Z,68.41
2019-03-22T21:37:13.167Z,68.75
2019-03-22T21:39:43.426Z,69.09
2019-03-22T21:42:13.423Z,69.66
2019-03-22T21:44:43.361Z,69.94
2019-03-22T21:47:13.417Z,70.58
2019-03-22T21:49:43.517Z,71.20
2019-03-22T21:52:13.495Z,71.72
2019-03-22T21:54:43.446Z,72.21
2019-03-22T21:57:13.551Z,72.89
2019-03-22T21:59:43.595Z,73.68
2019-03-22T22:02:13.547Z,74.55
2019-03-22T22:04:43.778Z,75.26
2019-03-22T22:07:13.723Z,75.71
2019-03-22T22:09:43.671Z,76.61
2019-03-22T22:12:13.824Z,77.12
2019-03-22T22:14:43.875Z,77.85
2019-03-22T22:17:13.825Z,78.50
2019-03-22T22:19:44.321Z,79.13
2019-03-22T22:22:14.360Z,79.51
2019-03-22T22:24:44.397Z,80.08
2019-03-22T22:27:14.478Z,80.22
2019-03-22T22:29:44.465Z,80.82
2019-03-22T22:32:14.481Z,81.09
2019-03-22T22:34:44.793Z,81.51
2019-03-22T22:37:14.742Z,81.62
2019-03-22T22:39:44.692Z,81.68
2019-03-22T22:42:14.768Z,81.86
2019-03-22T22:44:44.781Z,82.21
2019-03-22T22:47:14.847Z,82.15
2019-03-22T22:49:44.929Z,82.31
2019-03-22T22:52:14.868Z,82.98
2019-03-22T22:54:44.801Z,83.26
2019-03-22T22:57:14.911Z,83.85
2019-03-22T22:59:44.992Z,84.27
2019-03-22T23:02:14.936Z,84.63
2019-03-22T23:04:44.947Z,85.50
2019-03-22T23:07:15.089Z,85.82
2019-03-22T23:09:45.136Z,86.44
2019-03-22T23:12:15.285Z,86.82
2019-03-22T23:14:45.220Z,86.83
2019-03-22T23:17:15.262Z,86.66
2019-03-22T23:19:45.355Z,86.75
2019-03-22T23:22:15.294Z,86.55
2019-03-22T23:24:45.339Z,86.46
2019-03-22T23:27:15.338Z,86.36
2019-03-22T23:29:45.270Z,85.93
2019-03-22T23:32:15.305Z,86.40
2019-03-22T23:34:45.569Z,87.08
2019-03-22T23:37:15.498Z,87.24
2019-03-22T23:39:45.425Z,87.28
2019-03-22T23:42:15.660Z,87.80
2019-03-22T23:44:45.842Z,88.40
2019-03-22T23:47:15.734Z,88.32
2019-03-22T23:49:45.713Z,88.47
2019-03-22T23:52:15.798Z,88.65
2019-03-22T23:54:45.866Z,88.40
2019-03-22T23:57:15.848Z,87.56
2019-03-22T23:59:45.818Z,87.02
